createdAt,value
2019-05-02T00:00:05.953Z,7.50
2019-05-02T00:01:05.981Z,7.49
2019-05-02T00:02:05.930Z,7.48
2019-05-02T00:03:05.923Z,7.46
2019-05-02T00:04:05.911Z,7.46
2019-05-02T00:05:05.902Z,7.47
2019-05-02T00:06:07.370Z,7.46
2019-05-02T00:07:05.875Z,7.44
2019-05-02T00:08:05.859Z,7.44
2019-05-02T00:09:09.145Z,7.43
2019-05-02T00:10:06.843Z,7.42
2019-05-02T00:11:05.853Z,7.41
2019-05-02T00:12:05.832Z,7.40
2019-05-02T00:13:05.812Z,7.38
2019-05-02T00:14:05.798Z,7.38
2019-05-02T00:15:05.787Z,7.37
2019-05-02T00:16:09.136Z,7.37
2019-05-02T00:17:06.773Z,7.36
2019-05-02T00:18:05.751Z,7.36
2019-05-02T00:19:09.055Z,7.35
2019-05-02T00:20:06.728Z,7.36
2019-05-02T00:21:05.728Z,7.36
2019-05-02T00:22:05.759Z,7.33
2019-05-02T00:23:05.706Z,7.31
2019-05-02T00:24:05.700Z,7.31
2019-05-02T00:25:05.676Z,7.29
2019-05-02T00:26:05.678Z,7.27
2019-05-02T00:27:05.680Z,7.23
2019-05-02T00:28:07.823Z,7.21
2019-05-02T00:29:06.657Z,7.20
2019-05-02T00:30:05.636Z,7.18
2019-05-02T00:31:07.475Z,7.16
2019-05-02T00:32:06.627Z,7.13
2019-05-02T00:33:05.596Z,7.13
2019-05-02T00:34:05.619Z,7.11
2019-05-02T00:35:05.568Z,7.08
2019-05-02T00:36:05.568Z,7.07
2019-05-02T00:37:05.580Z,7.04
2019-05-02T00:38:05.547Z,7.03
2019-05-02T00:39:09.510Z,7.01
2019-05-02T00:40:06.515Z,6.99
2019-05-02T00:41:05.527Z,6.97
2019-05-02T00:42:12.429Z,6.94
2019-05-02T00:43:06.505Z,6.93
2019-05-02T00:44:06.092Z,6.92
2019-05-02T00:45:06.470Z,6.88
2019-05-02T00:46:05.462Z,6.86
2019-05-02T00:47:06.108Z,6.85
2019-05-02T00:48:06.447Z,6.82
2019-05-02T00:49:05.423Z,6.81
2019-05-02T00:50:06.188Z,6.81
2019-05-02T00:51:06.407Z,6.80
2019-05-02T00:52:05.397Z,6.80
2019-05-02T00:53:07.292Z,6.80
2019-05-02T00:54:06.392Z,6.79
2019-05-02T00:55:05.356Z,6.80
2019-05-02T00:56:09.169Z,6.79
2019-05-02T00:57:06.327Z,6.79
2019-05-02T00:58:05.357Z,6.78
2019-05-02T00:59:07.423Z,6.77
2019-05-02T01:00:05.307Z,6.74
2019-05-02T01:01:05.300Z,6.74
2019-05-02T01:02:07.086Z,6.71
2019-05-02T01:03:05.286Z,6.70
2019-05-02T01:04:05.265Z,6.70
2019-05-02T01:05:05.268Z,6.70
2019-05-02T01:06:05.248Z,6.70
2019-05-02T01:07:05.224Z,6.70
2019-05-02T01:08:05.224Z,6.70
2019-05-02T01:09:05.780Z,6.71
2019-05-02T01:10:06.202Z,6.69
2019-05-02T01:11:05.184Z,6.69
2019-05-02T01:12:08.282Z,6.69
2019-05-02T01:13:05.170Z,6.69
2019-05-02T01:14:05.151Z,6.69
2019-05-02T01:15:08.389Z,6.68
2019-05-02T01:16:05.144Z,6.67
2019-05-02T01:17:05.126Z,6.68
2019-05-02T01:18:06.127Z,6.67
2019-05-02T01:19:05.093Z,6.67
2019-05-02T01:20:05.095Z,6.65
2019-05-02T01:21:05.104Z,6.65
2019-05-02T01:22:05.098Z,6.64
2019-05-02T01:23:05.055Z,6.63
2019-05-02T01:24:05.055Z,6.63
2019-05-02T01:25:05.050Z,6.63
2019-05-02T01:26:05.034Z,6.63
2019-05-02T01:27:06.501Z,6.64
2019-05-02T01:28:05.011Z,6.64
2019-05-02T01:29:04.992Z,6.64
2019-05-02T01:30:06.080Z,6.63
2019-05-02T01:31:04.999Z,6.62
2019-05-02T01:32:04.972Z,6.62
2019-05-02T01:33:06.396Z,6.60
2019-05-02T01:34:04.940Z,6.58
2019-05-02T01:35:04.953Z,6.57
2019-05-02T01:36:06.393Z,6.55
2019-05-02T01:37:04.935Z,6.54
2019-05-02T01:38:04.909Z,6.52
2019-05-02T01:39:07.503Z,6.51
2019-05-02T01:40:04.881Z,6.50
2019-05-02T01:41:04.874Z,6.48
2019-05-02T01:42:05.442Z,6.46
2019-05-02T01:43:04.854Z,6.44
2019-05-02T01:44:04.850Z,6.40
2019-05-02T01:45:06.747Z,6.37
2019-05-02T01:46:05.819Z,6.35
2019-05-02T01:47:04.798Z,6.33
2019-05-02T01:48:04.954Z,6.33
2019-05-02T01:49:04.820Z,6.32
2019-05-02T01:50:04.767Z,6.31
2019-05-02T01:51:10.070Z,6.30
2019-05-02T01:52:05.763Z,6.30
2019-05-02T01:53:04.739Z,6.29
2019-05-02T01:54:05.097Z,6.28
2019-05-02T01:55:04.727Z,6.28
2019-05-02T01:56:04.715Z,6.27
2019-05-02T01:57:08.622Z,6.26
2019-05-02T01:58:05.682Z,6.26
2019-05-02T01:59:04.703Z,6.26
2019-05-02T02:00:09.377Z,6.25
2019-05-02T02:01:05.663Z,6.25
2019-05-02T02:02:04.648Z,6.24
2019-05-02T02:03:09.050Z,6.24
2019-05-02T02:04:05.637Z,6.22
2019-05-02T02:05:04.633Z,6.22
2019-05-02T02:06:08.120Z,6.21
2019-05-02T02:07:05.594Z,6.20
2019-05-02T02:08:04.571Z,6.20
2019-05-02T02:09:08.435Z,6.18
2019-05-02T02:10:05.577Z,6.16
2019-05-02T02:11:04.587Z,6.14
2019-05-02T02:12:04.914Z,6.14
2019-05-02T02:13:05.285Z,6.13
2019-05-02T02:14:07.429Z,6.12
2019-05-02T02:15:05.505Z,6.12
2019-05-02T02:16:05.847Z,6.12
2019-05-02T02:17:04.516Z,6.11
2019-05-02T02:18:04.475Z,6.10
2019-05-02T02:19:05.399Z,6.09
2019-05-02T02:20:04.458Z,6.09
2019-05-02T02:21:04.447Z,6.08
2019-05-02T02:22:04.487Z,6.09
2019-05-02T02:23:04.436Z,6.08
2019-05-02T02:24:04.404Z,6.08
2019-05-02T02:25:04.414Z,6.07
2019-05-02T02:26:06.808Z,6.07
2019-05-02T02:27:05.405Z,6.05
2019-05-02T02:28:04.366Z,6.03
2019-05-02T02:29:07.944Z,6.01
2019-05-02T02:30:04.347Z,5.98
2019-05-02T02:31:07.467Z,5.98
2019-05-02T02:32:04.337Z,5.97
2019-05-02T02:33:07.567Z,5.96
2019-05-02T02:34:04.301Z,5.96
2019-05-02T02:35:10.087Z,5.94
2019-05-02T02:36:05.281Z,5.95
2019-05-02T02:37:05.310Z,5.96
2019-05-02T02:38:05.284Z,5.97
2019-05-02T02:39:06.919Z,5.98
2019-05-02T02:40:05.244Z,5.98
2019-05-02T02:41:06.443Z,6.00
2019-05-02T02:42:05.225Z,6.01
2019-05-02T02:43:22.245Z,6.03
2019-05-02T02:44:05.216Z,6.04
2019-05-02T02:45:04.197Z,6.05
2019-05-02T02:46:04.185Z,6.07
2019-05-02T02:47:04.175Z,6.08
2019-05-02T02:48:04.145Z,6.10
2019-05-02T02:49:04.147Z,6.12
2019-05-02T02:50:05.339Z,6.15
2019-05-02T02:51:04.123Z,6.16
2019-05-02T02:52:05.025Z,6.19
2019-05-02T02:53:04.121Z,6.19
2019-05-02T02:54:05.861Z,6.19
2019-05-02T02:55:04.082Z,6.21
2019-05-02T02:56:04.262Z,6.21
2019-05-02T02:57:04.069Z,6.22
2019-05-02T02:58:04.698Z,6.22
2019-05-02T02:59:04.084Z,6.23
2019-05-02T03:00:07.788Z,6.23
2019-05-02T03:01:05.019Z,6.25
2019-05-02T03:02:10.073Z,6.24
2019-05-02T03:03:04.989Z,6.25
2019-05-02T03:04:09.642Z,6.24
2019-05-02T03:05:04.979Z,6.23
2019-05-02T03:06:05.631Z,6.22
2019-05-02T03:07:03.951Z,6.22
2019-05-02T03:08:05.404Z,6.20
2019-05-02T03:09:03.922Z,6.18
2019-05-02T03:10:06.031Z,6.16
2019-05-02T03:11:03.912Z,6.15
2019-05-02T03:12:04.580Z,6.14
2019-05-02T03:13:03.887Z,6.12
2019-05-02T03:14:07.405Z,6.10
2019-05-02T03:15:04.869Z,6.09
2019-05-02T03:16:07.068Z,6.09
2019-05-02T03:17:04.839Z,6.08
2019-05-02T03:18:03.834Z,6.09
2019-05-02T03:19:03.823Z,6.11
2019-05-02T03:20:04.021Z,6.13
2019-05-02T03:21:03.856Z,6.16
2019-05-02T03:22:04.187Z,6.19
2019-05-02T03:23:03.789Z,6.25
2019-05-02T03:24:05.814Z,6.31
2019-05-02T03:25:03.752Z,6.37
2019-05-02T03:26:07.847Z,6.42
2019-05-02T03:27:04.716Z,6.46
2019-05-02T03:28:03.751Z,6.52
2019-05-02T03:29:03.742Z,6.55
2019-05-02T03:30:03.690Z,6.59
2019-05-02T03:31:20.963Z,6.63
2019-05-02T03:32:14.401Z,6.66
2019-05-02T03:33:10.250Z,6.71
2019-05-02T03:34:04.703Z,6.76
2019-05-02T03:35:03.655Z,6.81
2019-05-02T03:36:03.635Z,6.85
2019-05-02T03:37:10.688Z,6.90
2019-05-02T03:38:04.608Z,6.96
2019-05-02T03:39:13.582Z,7.03
2019-05-02T03:40:04.606Z,7.08
2019-05-02T03:41:03.590Z,7.14
2019-05-02T03:42:04.976Z,7.18
2019-05-02T03:43:03.571Z,7.24
2019-05-02T03:44:11.370Z,7.29
2019-05-02T03:45:05.276Z,7.35
2019-05-02T03:46:03.535Z,7.39
2019-05-02T03:47:04.990Z,7.45
2019-05-02T03:48:03.539Z,7.50
2019-05-02T03:49:07.376Z,7.55
2019-05-02T03:50:08.343Z,7.61
2019-05-02T03:51:05.215Z,7.67
2019-05-02T03:52:05.901Z,7.71
2019-05-02T03:53:03.450Z,7.75
2019-05-02T03:54:07.785Z,7.79
2019-05-02T03:55:04.450Z,7.84
2019-05-02T03:56:10.604Z,7.90
2019-05-02T03:57:04.419Z,7.93
2019-05-02T03:58:12.860Z,7.98
2019-05-02T03:59:04.434Z,8.03
2019-05-02T04:00:03.391Z,8.09
2019-05-02T04:01:03.900Z,8.12
2019-05-02T04:02:03.393Z,8.16
2019-05-02T04:03:03.366Z,8.21
2019-05-02T04:04:03.343Z,8.25
2019-05-02T04:05:03.335Z,8.30
2019-05-02T04:06:03.322Z,8.36
2019-05-02T04:07:03.409Z,8.39
2019-05-02T04:08:05.385Z,8.43
2019-05-02T04:09:05.356Z,8.48
2019-05-02T04:10:04.689Z,8.52
2019-05-02T04:11:03.645Z,8.57
2019-05-02T04:12:03.588Z,8.61
2019-05-02T04:13:03.512Z,8.65
2019-05-02T04:14:14.885Z,8.69
2019-05-02T04:15:04.318Z,8.72
2019-05-02T04:16:14.535Z,8.77
2019-05-02T04:17:04.310Z,8.81
2019-05-02T04:18:08.386Z,8.84
2019-05-02T04:19:04.302Z,8.88
2019-05-02T04:20:09.783Z,8.92
2019-05-02T04:21:04.243Z,8.92
2019-05-02T04:22:08.425Z,8.95
2019-05-02T04:23:04.113Z,8.97
2019-05-02T04:24:12.999Z,9.00
2019-05-02T04:25:06.325Z,9.03
2019-05-02T04:26:06.804Z,9.06
2019-05-02T04:27:04.202Z,9.08
2019-05-02T04:28:05.959Z,9.10
2019-05-02T04:29:04.247Z,9.15
2019-05-02T04:30:11.618Z,9.18
2019-05-02T04:31:04.151Z,9.22
2019-05-02T04:32:10.817Z,9.26
2019-05-02T04:33:04.044Z,9.30
2019-05-02T04:34:14.198Z,9.33
2019-05-02T04:35:03.991Z,9.37
2019-05-02T04:36:14.033Z,9.39
2019-05-02T04:37:04.296Z,9.43
2019-05-02T04:38:09.986Z,9.49
2019-05-02T04:39:05.659Z,9.51
2019-05-02T04:40:07.918Z,9.55
2019-05-02T04:41:03.952Z,9.58
2019-05-02T04:42:13.021Z,9.62
2019-05-02T04:43:08.229Z,9.66
2019-05-02T04:44:04.247Z,9.71
2019-05-02T04:45:21.171Z,9.75
2019-05-02T04:46:09.454Z,9.79
2019-05-02T04:47:13.933Z,9.80
2019-05-02T04:48:04.239Z,9.82
2019-05-02T04:49:02.940Z,9.86
2019-05-02T04:50:08.006Z,9.88
2019-05-02T04:51:10.136Z,9.93
2019-05-02T04:52:10.374Z,9.99
2019-05-02T04:53:03.827Z,10.04
2019-05-02T04:54:02.792Z,10.08
2019-05-02T04:55:14.797Z,10.13
2019-05-02T04:56:06.845Z,10.16
2019-05-02T04:57:03.884Z,10.20
2019-05-02T04:58:03.153Z,10.25
2019-05-02T04:59:14.015Z,10.30
2019-05-02T05:00:08.474Z,10.34
2019-05-02T05:01:03.849Z,10.38
2019-05-02T05:02:02.841Z,10.43
2019-05-02T05:03:07.223Z,10.48
2019-05-02T05:04:03.870Z,10.52
2019-05-02T05:05:02.757Z,10.56
2019-05-02T05:06:10.048Z,10.61
2019-05-02T05:07:03.690Z,10.63
2019-05-02T05:08:02.694Z,10.67
2019-05-02T05:09:04.005Z,10.70
2019-05-02T05:10:03.769Z,10.71
2019-05-02T05:11:02.741Z,10.74
2019-05-02T05:12:02.840Z,10.75
2019-05-02T05:13:02.784Z,10.76
2019-05-02T05:14:02.633Z,10.81
2019-05-02T05:15:02.629Z,10.85
2019-05-02T05:16:02.989Z,10.91
2019-05-02T05:17:02.738Z,10.97
2019-05-02T05:18:04.440Z,11.05
2019-05-02T05:19:03.605Z,11.11
2019-05-02T05:20:10.452Z,11.19
2019-05-02T05:21:03.696Z,11.27
2019-05-02T05:22:04.949Z,11.34
2019-05-02T05:23:02.495Z,11.38
2019-05-02T05:24:02.465Z,11.44
2019-05-02T05:25:02.453Z,11.47
2019-05-02T05:26:04.707Z,11.52
2019-05-02T05:27:02.467Z,11.56
2019-05-02T05:28:05.901Z,11.58
2019-05-02T05:29:02.706Z,11.63
2019-05-02T05:30:09.422Z,11.68
2019-05-02T05:31:03.478Z,11.75
2019-05-02T05:32:05.705Z,11.84
2019-05-02T05:33:03.364Z,11.89
2019-05-02T05:34:02.495Z,11.94
2019-05-02T05:35:03.420Z,12.01
2019-05-02T05:36:03.507Z,12.07
2019-05-02T05:37:03.801Z,12.15
2019-05-02T05:38:03.441Z,12.20
2019-05-02T05:39:03.013Z,12.25
2019-05-02T05:40:03.568Z,12.29
2019-05-02T05:41:03.075Z,12.31
2019-05-02T05:42:03.336Z,12.33
2019-05-02T05:43:11.317Z,12.37
2019-05-02T05:44:03.269Z,12.40
2019-05-02T05:45:03.714Z,12.42
2019-05-02T05:46:10.628Z,12.46
2019-05-02T05:47:03.389Z,12.48
2019-05-02T05:48:02.235Z,12.55
2019-05-02T05:49:02.378Z,12.57
2019-05-02T05:50:02.294Z,12.58
2019-05-02T05:51:02.282Z,12.59
2019-05-02T05:52:03.762Z,12.60
2019-05-02T05:53:02.215Z,12.62
2019-05-02T05:54:03.159Z,12.62
2019-05-02T05:55:04.772Z,12.62
2019-05-02T05:56:02.594Z,12.63
2019-05-02T05:57:02.152Z,12.69
2019-05-02T05:58:12.407Z,12.79
2019-05-02T05:59:03.309Z,12.86
2019-05-02T06:00:03.956Z,12.92
2019-05-02T06:01:03.191Z,12.93
2019-05-02T06:02:05.409Z,12.91
2019-05-02T06:03:13.058Z,12.93
2019-05-02T06:04:03.133Z,12.99
2019-05-02T06:05:03.712Z,13.09
2019-05-02T06:06:02.107Z,13.18
2019-05-02T06:07:03.277Z,13.26
2019-05-02T06:08:01.981Z,13.30
2019-05-02T06:09:01.993Z,13.31
2019-05-02T06:10:02.224Z,13.30
2019-05-02T06:11:02.953Z,13.32
2019-05-02T06:12:01.938Z,13.38
2019-05-02T06:13:05.233Z,13.43
2019-05-02T06:14:02.910Z,13.54
2019-05-02T06:15:03.759Z,13.67
2019-05-02T06:16:03.220Z,13.75
2019-05-02T06:17:01.923Z,13.80
2019-05-02T06:18:04.814Z,13.86
2019-05-02T06:19:01.858Z,13.90
2019-05-02T06:20:01.847Z,13.95
2019-05-02T06:21:03.453Z,14.04
2019-05-02T06:22:02.883Z,14.12
2019-05-02T06:23:01.861Z,14.23
2019-05-02T06:24:01.809Z,14.33
2019-05-02T06:25:01.812Z,14.38
2019-05-02T06:26:07.910Z,14.45
2019-05-02T06:27:02.787Z,14.54
2019-05-02T06:28:05.184Z,14.62
2019-05-02T06:29:01.787Z,14.68
2019-05-02T06:30:01.750Z,14.77
2019-05-02T06:31:02.120Z,14.88
2019-05-02T06:32:02.710Z,14.99
2019-05-02T06:33:01.737Z,15.04
2019-05-02T06:34:02.088Z,15.14
2019-05-02T06:35:01.712Z,15.21
2019-05-02T06:36:02.507Z,15.25
2019-05-02T06:37:01.669Z,15.32
2019-05-02T06:38:01.668Z,15.32
2019-05-02T06:39:01.648Z,15.26
2019-05-02T06:40:03.054Z,15.24
2019-05-02T06:41:02.675Z,15.36
2019-05-02T06:42:01.629Z,15.53
2019-05-02T06:43:04.227Z,15.62
2019-05-02T06:44:02.599Z,15.67
2019-05-02T06:45:01.587Z,15.70
2019-05-02T06:46:14.902Z,15.69
2019-05-02T06:47:04.277Z,15.65
2019-05-02T06:48:01.556Z,15.62
2019-05-02T06:49:01.538Z,15.61
2019-05-02T06:50:02.773Z,15.68
2019-05-02T06:51:01.537Z,15.77
2019-05-02T06:52:01.534Z,15.78
2019-05-02T06:53:04.363Z,15.80
2019-05-02T06:54:02.472Z,15.79
2019-05-02T06:55:01.468Z,15.82
2019-05-02T06:56:01.469Z,15.74
2019-05-02T06:57:01.517Z,15.69
2019-05-02T06:58:02.890Z,15.76
2019-05-02T06:59:01.463Z,15.86
2019-05-02T07:00:01.418Z,15.92
2019-05-02T07:01:01.409Z,15.96
2019-05-02T07:02:01.401Z,15.96
2019-05-02T07:03:05.129Z,16.03
2019-05-02T07:04:04.261Z,16.06
2019-05-02T07:05:01.361Z,15.99
2019-05-02T07:06:02.742Z,15.95
2019-05-02T07:07:01.497Z,15.88
2019-05-02T07:08:01.356Z,15.89
2019-05-02T07:09:01.607Z,15.89
2019-05-02T07:10:01.302Z,15.90
2019-05-02T07:11:03.136Z,15.97
2019-05-02T07:12:01.676Z,16.11
2019-05-02T07:13:09.946Z,16.23
2019-05-02T07:14:12.973Z,16.26
2019-05-02T07:15:03.861Z,16.22
2019-05-02T07:16:01.236Z,16.13
2019-05-02T07:17:01.235Z,16.11
2019-05-02T07:18:05.440Z,16.18
2019-05-02T07:19:02.203Z,16.27
2019-05-02T07:20:04.102Z,16.27
2019-05-02T07:21:01.196Z,16.22
2019-05-02T07:22:04.192Z,16.15
2019-05-02T07:23:01.217Z,16.09
2019-05-02T07:24:01.195Z,15.98
2019-05-02T07:25:01.931Z,15.87
2019-05-02T07:26:02.134Z,15.79
2019-05-02T07:27:02.542Z,15.71
2019-05-02T07:28:04.655Z,15.67
2019-05-02T07:29:02.123Z,15.63
2019-05-02T07:30:01.123Z,15.61
2019-05-02T07:31:01.110Z,15.57
2019-05-02T07:32:01.111Z,15.49
2019-05-02T07:33:02.309Z,15.45
2019-05-02T07:34:01.094Z,15.45
2019-05-02T07:35:01.038Z,15.51
2019-05-02T07:36:01.461Z,15.66
2019-05-02T07:37:01.008Z,15.84
2019-05-02T07:38:01.017Z,15.96
2019-05-02T07:39:05.232Z,16.04
2019-05-02T07:40:01.991Z,16.13
2019-05-02T07:41:01.016Z,16.22
2019-05-02T07:42:05.971Z,16.31
2019-05-02T07:43:01.942Z,16.50
2019-05-02T07:44:00.953Z,16.66
2019-05-02T07:45:04.417Z,16.77
2019-05-02T07:46:01.922Z,16.85
2019-05-02T07:47:02.448Z,16.99
2019-05-02T07:48:01.540Z,17.10
2019-05-02T07:49:00.916Z,17.15
2019-05-02T07:50:05.397Z,17.02
2019-05-02T07:51:01.860Z,16.90
2019-05-02T07:52:00.866Z,16.76
2019-05-02T07:53:04.427Z,16.66
2019-05-02T07:54:01.875Z,16.65
2019-05-02T07:55:01.165Z,16.63
2019-05-02T07:56:00.793Z,16.61
2019-05-02T07:57:02.382Z,16.66
2019-05-02T07:58:02.014Z,16.73
2019-05-02T07:59:01.797Z,16.90
2019-05-02T08:00:02.603Z,17.05
2019-05-02T08:01:00.773Z,17.22
2019-05-02T08:02:00.745Z,17.48
2019-05-02T08:03:00.735Z,17.69
2019-05-02T08:04:04.459Z,17.92
2019-05-02T08:05:00.732Z,18.29
2019-05-02T08:06:00.720Z,18.58
2019-05-02T08:07:00.703Z,18.72
2019-05-02T08:08:00.682Z,18.92
2019-05-02T08:09:01.625Z,19.10
2019-05-02T08:10:01.683Z,19.21
2019-05-02T08:11:02.884Z,19.39
2019-05-02T08:12:00.613Z,19.44
2019-05-02T08:13:00.643Z,19.44
2019-05-02T08:14:00.686Z,19.48
2019-05-02T08:15:00.614Z,19.49
2019-05-02T08:16:00.602Z,19.49
2019-05-02T08:17:05.846Z,19.47
2019-05-02T08:18:01.652Z,19.39
2019-05-02T08:19:04.966Z,19.35
2019-05-02T08:20:00.560Z,19.41
2019-05-02T08:21:00.532Z,19.51
2019-05-02T08:22:04.713Z,19.58
2019-05-02T08:23:01.511Z,19.63
2019-05-02T08:24:02.179Z,19.62
2019-05-02T08:25:00.497Z,19.62
2019-05-02T08:26:00.500Z,19.63
2019-05-02T08:27:00.470Z,19.74
2019-05-02T08:28:00.482Z,19.86
2019-05-02T08:29:00.435Z,19.97
2019-05-02T08:30:04.309Z,20.10
2019-05-02T08:31:01.440Z,20.26
2019-05-02T08:32:00.404Z,20.54
2019-05-02T08:33:00.404Z,20.94
2019-05-02T08:34:00.428Z,21.41
2019-05-02T08:35:00.381Z,21.63
2019-05-02T08:36:00.363Z,21.70
2019-05-02T08:37:03.388Z,21.79
2019-05-02T08:38:00.352Z,21.81
2019-05-02T08:39:00.331Z,21.73
2019-05-02T08:40:00.329Z,21.57
2019-05-02T08:41:00.317Z,21.62
2019-05-02T08:42:00.305Z,21.67
2019-05-02T08:43:03.695Z,21.67
2019-05-02T08:44:01.262Z,21.79
2019-05-02T08:45:00.988Z,22.00
2019-05-02T08:46:00.296Z,22.22
2019-05-02T08:47:00.249Z,22.42
2019-05-02T08:48:04.844Z,22.51
2019-05-02T08:49:01.240Z,22.56
2019-05-02T08:50:00.221Z,22.62
2019-05-02T08:51:00.202Z,22.73
2019-05-02T08:52:00.213Z,22.70
2019-05-02T08:53:00.220Z,22.50
2019-05-02T08:54:00.193Z,22.33
2019-05-02T08:55:04.357Z,22.13
2019-05-02T08:56:01.142Z,22.09
2019-05-02T08:57:00.647Z,22.31
2019-05-02T08:58:00.141Z,22.59
2019-05-02T08:59:00.113Z,22.78
2019-05-02T09:00:01.370Z,22.93
2019-05-02T09:01:00.103Z,23.03
2019-05-02T09:02:00.082Z,22.98
2019-05-02T09:03:02.590Z,23.29
2019-05-02T09:04:00.062Z,23.71
2019-05-02T09:05:04.667Z,23.63
2019-05-02T09:06:05.890Z,23.64
2019-05-02T09:07:01.057Z,23.61
2019-05-02T09:08:00.051Z,24.21
2019-05-02T09:09:00.023Z,24.29
2019-05-02T09:10:00.163Z,24.12
2019-05-02T09:11:01.070Z,24.42
2019-05-02T09:12:11.395Z,24.89
2019-05-02T09:13:02.675Z,25.62
2019-05-02T09:14:01.945Z,25.45
2019-05-02T09:14:59.922Z,24.90
2019-05-02T09:16:02.781Z,24.76
2019-05-02T09:17:08.618Z,25.44
2019-05-02T09:18:02.685Z,25.71
2019-05-02T09:18:59.889Z,27.15
2019-05-02T09:20:04.969Z,29.14
2019-05-02T09:21:02.071Z,28.80
2019-05-02T09:21:59.914Z,29.06
2019-05-02T09:23:01.617Z,28.80
2019-05-02T09:23:59.832Z,28.45
2019-05-02T09:25:02.107Z,28.50
2019-05-02T09:25:59.814Z,28.58
2019-05-02T09:26:59.823Z,29.09
2019-05-02T09:28:01.735Z,29.90
2019-05-02T09:29:01.710Z,30.48
2019-05-02T09:30:02.739Z,29.90
2019-05-02T09:31:05.025Z,29.12
2019-05-02T09:32:02.132Z,28.58
2019-05-02T09:33:02.843Z,28.85
2019-05-02T09:34:02.548Z,30.44
2019-05-02T09:35:02.351Z,29.56
2019-05-02T09:36:02.378Z,32.38
2019-05-02T09:36:59.750Z,34.21
2019-05-02T09:38:01.638Z,31.99
2019-05-02T09:38:59.710Z,32.22
2019-05-02T09:40:02.047Z,32.94
2019-05-02T09:41:13.822Z,35.22
2019-05-02T09:42:02.174Z,32.96
2019-05-02T09:43:02.201Z,30.91
2019-05-02T09:43:59.636Z,29.56
2019-05-02T09:44:59.618Z,30.46
2019-05-02T09:45:59.605Z,34.00
2019-05-02T09:46:59.574Z,33.84
2019-05-02T09:48:05.182Z,32.31
2019-05-02T09:49:02.881Z,33.28
2019-05-02T09:49:59.605Z,32.55
2019-05-02T09:51:04.527Z,32.05
2019-05-02T09:52:01.280Z,32.64
2019-05-02T09:53:01.700Z,33.75
2019-05-02T09:54:04.698Z,33.16
2019-05-02T09:55:02.751Z,32.05
2019-05-02T09:55:59.492Z,31.52
2019-05-02T09:56:59.474Z,31.04
2019-05-02T09:57:59.499Z,33.50
2019-05-02T09:59:04.825Z,34.23
2019-05-02T10:00:02.156Z,34.66
2019-05-02T10:00:59.440Z,32.90
2019-05-02T10:01:59.432Z,31.60
2019-05-02T10:02:59.415Z,31.75
2019-05-02T10:03:59.487Z,32.15
2019-05-02T10:04:59.432Z,32.30
2019-05-02T10:05:59.393Z,31.77
2019-05-02T10:06:59.453Z,31.12
2019-05-02T10:08:03.120Z,30.62
2019-05-02T10:09:02.631Z,30.26
2019-05-02T10:10:03.115Z,30.13
2019-05-02T10:11:02.619Z,30.27
2019-05-02T10:11:59.348Z,30.45
2019-05-02T10:12:59.311Z,30.43
2019-05-02T10:13:59.303Z,30.26
2019-05-02T10:14:59.327Z,30.13
2019-05-02T10:15:59.274Z,29.82
2019-05-02T10:17:05.133Z,29.26
2019-05-02T10:18:08.686Z,28.78
2019-05-02T10:19:00.498Z,28.54
2019-05-02T10:20:02.029Z,28.44
2019-05-02T10:20:59.232Z,28.33
2019-05-02T10:21:59.203Z,28.45
2019-05-02T10:22:59.191Z,28.51
2019-05-02T10:24:00.864Z,28.13
2019-05-02T10:24:59.186Z,27.50
2019-05-02T10:25:59.183Z,26.85
2019-05-02T10:27:04.297Z,26.31
2019-05-02T10:28:02.142Z,26.16
2019-05-02T10:28:59.135Z,26.33
2019-05-02T10:30:08.207Z,27.00
2019-05-02T10:31:02.086Z,27.26
2019-05-02T10:31:59.111Z,27.27
2019-05-02T10:32:59.119Z,27.01
2019-05-02T10:33:59.061Z,26.59
2019-05-02T10:34:59.076Z,26.18
2019-05-02T10:35:59.105Z,25.98
2019-05-02T10:37:00.401Z,26.09
2019-05-02T10:37:59.055Z,26.44
2019-05-02T10:38:59.399Z,27.07
2019-05-02T10:39:59.012Z,27.65
2019-05-02T10:41:01.823Z,27.85
2019-05-02T10:42:01.993Z,27.75
2019-05-02T10:42:58.975Z,27.75
2019-05-02T10:43:59.621Z,28.29
2019-05-02T10:44:58.988Z,28.78
2019-05-02T10:45:58.934Z,28.84
2019-05-02T10:46:58.994Z,29.29
2019-05-02T10:47:58.926Z,30.83
2019-05-02T10:48:58.914Z,31.94
2019-05-02T10:49:58.904Z,33.60
2019-05-02T10:50:58.876Z,35.23
2019-05-02T10:51:58.899Z,37.69
2019-05-02T10:53:03.492Z,40.31
2019-05-02T10:53:59.855Z,42.81
2019-05-02T10:54:58.855Z,43.91
2019-05-02T10:55:58.841Z,44.53
2019-05-02T10:56:58.843Z,45.26
2019-05-02T10:57:58.842Z,46.16
2019-05-02T10:58:58.807Z,44.50
2019-05-02T10:59:58.808Z,43.39
2019-05-02T11:00:58.786Z,41.37
2019-05-02T11:01:58.773Z,42.68
2019-05-02T11:02:58.775Z,40.71
2019-05-02T11:03:58.733Z,38.53
2019-05-02T11:04:58.741Z,36.97
2019-05-02T11:06:05.640Z,35.60
2019-05-02T11:06:59.717Z,38.31
2019-05-02T11:08:04.715Z,40.79
2019-05-02T11:08:59.697Z,42.52
2019-05-02T11:10:03.145Z,43.78
2019-05-02T11:10:59.657Z,44.18
2019-05-02T11:11:58.658Z,43.64
2019-05-02T11:12:58.665Z,43.81
2019-05-02T11:14:01.045Z,42.47
2019-05-02T11:14:59.634Z,39.35
2019-05-02T11:15:58.604Z,36.96
2019-05-02T11:16:58.609Z,35.36
2019-05-02T11:17:58.616Z,35.89
2019-05-02T11:18:58.599Z,39.42
2019-05-02T11:19:58.570Z,42.22
2019-05-02T11:20:58.962Z,44.05
2019-05-02T11:21:59.246Z,45.35
2019-05-02T11:22:58.563Z,46.64
2019-05-02T11:23:58.664Z,47.36
2019-05-02T11:24:58.565Z,47.42
2019-05-02T11:25:58.507Z,47.84
2019-05-02T11:26:58.497Z,48.33
2019-05-02T11:28:05.451Z,49.09
2019-05-02T11:28:59.497Z,49.59
2019-05-02T11:29:58.468Z,50.63
2019-05-02T11:31:02.602Z,51.29
2019-05-02T11:31:59.443Z,51.67
2019-05-02T11:32:58.447Z,52.18
2019-05-02T11:33:58.456Z,53.01
2019-05-02T11:34:58.452Z,53.58
2019-05-02T11:35:58.428Z,54.04
2019-05-02T11:36:58.398Z,54.29
2019-05-02T11:37:58.378Z,54.23
2019-05-02T11:39:05.402Z,53.78
2019-05-02T11:40:01.357Z,54.14
2019-05-02T11:40:58.364Z,51.85
2019-05-02T11:41:58.386Z,51.58
2019-05-02T11:43:02.868Z,52.23
2019-05-02T11:43:59.330Z,50.99
2019-05-02T11:44:58.307Z,49.02
2019-05-02T11:46:05.588Z,47.97
2019-05-02T11:46:59.279Z,50.62
2019-05-02T11:48:02.037Z,52.00
2019-05-02T11:48:59.274Z,52.83
2019-05-02T11:49:58.239Z,52.28
2019-05-02T11:50:58.248Z,52.17
2019-05-02T11:51:58.232Z,53.51
2019-05-02T11:52:58.256Z,54.53
2019-05-02T11:53:59.304Z,54.83
2019-05-02T11:54:59.199Z,54.23
2019-05-02T11:56:02.394Z,53.90
2019-05-02T11:56:59.190Z,51.65
2019-05-02T11:58:02.414Z,50.33
2019-05-02T11:58:59.169Z,51.28
2019-05-02T11:59:59.476Z,51.08
2019-05-02T12:01:02.859Z,48.13
2019-05-02T12:02:00.097Z,45.03
2019-05-02T12:02:58.470Z,42.59
2019-05-02T12:03:58.125Z,43.67
2019-05-02T12:04:58.101Z,45.08
2019-05-02T12:05:58.094Z,45.17
2019-05-02T12:07:01.328Z,48.21
2019-05-02T12:08:02.595Z,50.43
2019-05-02T12:08:59.052Z,51.79
2019-05-02T12:09:58.063Z,52.56
2019-05-02T12:11:00.966Z,52.76
2019-05-02T12:11:58.053Z,49.02
2019-05-02T12:12:58.003Z,45.90
2019-05-02T12:13:58.052Z,44.22
2019-05-02T12:14:58.004Z,43.06
2019-05-02T12:15:57.997Z,42.90
2019-05-02T12:16:57.975Z,45.47
2019-05-02T12:17:57.996Z,47.81
2019-05-02T12:19:08.577Z,47.29
2019-05-02T12:19:58.928Z,45.07
2019-05-02T12:20:57.936Z,42.29
2019-05-02T12:21:57.905Z,40.23
2019-05-02T12:22:57.958Z,38.67
2019-05-02T12:23:57.914Z,37.69
2019-05-02T12:24:57.872Z,38.83
2019-05-02T12:25:57.875Z,41.98
2019-05-02T12:26:57.859Z,45.28
2019-05-02T12:27:57.874Z,48.02
2019-05-02T12:28:57.868Z,49.58
2019-05-02T12:29:59.290Z,48.29
2019-05-02T12:30:57.814Z,44.89
2019-05-02T12:31:57.806Z,45.31
2019-05-02T12:32:57.816Z,41.49
2019-05-02T12:33:57.783Z,38.93
2019-05-02T12:34:57.772Z,38.12
2019-05-02T12:35:57.768Z,41.96
2019-05-02T12:36:57.746Z,44.36
2019-05-02T12:37:57.776Z,44.58
2019-05-02T12:38:57.738Z,46.84
2019-05-02T12:39:57.718Z,46.85
2019-05-02T12:40:58.004Z,48.87
2019-05-02T12:41:57.910Z,50.09
2019-05-02T12:43:02.354Z,50.91
2019-05-02T12:43:57.669Z,51.45
2019-05-02T12:44:57.695Z,52.07
2019-05-02T12:45:57.659Z,52.08
2019-05-02T12:46:57.656Z,51.91
2019-05-02T12:47:57.639Z,52.26
2019-05-02T12:48:57.657Z,51.25
2019-05-02T12:49:57.613Z,50.52
2019-05-02T12:50:57.637Z,50.06
2019-05-02T12:51:57.633Z,50.55
2019-05-02T12:52:57.597Z,50.53
2019-05-02T12:53:57.603Z,50.76
2019-05-02T12:54:57.571Z,50.73
2019-05-02T12:55:57.559Z,50.39
2019-05-02T12:56:57.545Z,49.36
2019-05-02T12:57:57.557Z,49.29
2019-05-02T12:58:57.541Z,49.62
2019-05-02T12:59:57.569Z,49.84
2019-05-02T13:00:57.534Z,49.93
2019-05-02T13:01:57.505Z,49.88